createdAt,value
2018-11-22T00:01:39.100Z,36.30
2018-11-22T00:04:10.880Z,36.07
2018-11-22T00:06:42.217Z,36.20
2018-11-22T00:09:14.724Z,35.97
2018-11-22T00:11:47.448Z,34.77
2018-11-22T00:14:18.880Z,34.27
2018-11-22T00:16:55.671Z,35.27
2018-11-22T00:19:26.068Z,37.40
2018-11-22T00:21:54.660Z,34.93
2018-11-22T00:24:22.860Z,36.43
2018-11-22T00:26:51.041Z,34.87
2018-11-22T00:29:22.860Z,35.13
2018-11-22T00:31:50.992Z,35.43
2018-11-22T00:34:21.014Z,35.10
2018-11-22T00:36:49.164Z,35.93
2018-11-22T00:39:28.016Z,35.43
2018-11-22T00:42:00.900Z,35.07
2018-11-22T00:44:36.672Z,36.13
2018-11-22T00:47:04.861Z,36.50
2018-11-22T00:49:32.989Z,33.73
2018-11-22T00:52:04.249Z,35.97
2018-11-22T00:54:32.353Z,34.37
2018-11-22T00:57:00.500Z,35.50
2018-11-22T00:59:37.725Z,33.10
2018-11-22T01:02:06.021Z,34.23
2018-11-22T01:04:39.189Z,33.30
2018-11-22T01:07:07.696Z,35.47
2018-11-22T01:09:50.185Z,35.30
2018-11-22T01:12:18.949Z,35.20
2018-11-22T01:14:49.433Z,34.80
2018-11-22T01:17:20.649Z,35.93
2018-11-22T01:19:49.133Z,34.67
2018-11-22T01:22:23.585Z,34.53
2018-11-22T01:24:51.953Z,34.37
2018-11-22T01:27:20.841Z,34.53
2018-11-22T01:29:59.473Z,34.63
2018-11-22T01:32:28.017Z,33.57
2018-11-22T01:34:56.388Z,34.87
2018-11-22T01:37:25.017Z,32.97
2018-11-22T01:40:02.798Z,33.17
2018-11-22T01:42:35.926Z,34.37
2018-11-22T01:45:04.696Z,34.33
2018-11-22T01:47:33.082Z,32.50
2018-11-22T01:50:11.190Z,33.77
2018-11-22T01:52:40.276Z,30.70
2018-11-22T01:55:09.814Z,32.43
2018-11-22T01:57:38.409Z,32.30
2018-11-22T02:00:14.308Z,33.27
2018-11-22T02:02:45.306Z,32.70
2018-11-22T02:05:20.573Z,33.50
2018-11-22T02:07:52.414Z,31.40
2018-11-22T02:10:21.942Z,30.60
2018-11-22T02:12:50.462Z,30.83
2018-11-22T02:15:20.661Z,32.03
2018-11-22T02:17:49.225Z,29.90
2018-11-22T02:20:18.842Z,31.00
2018-11-22T02:22:47.586Z,33.20
2018-11-22T02:25:23.429Z,31.27
2018-11-22T02:27:51.846Z,30.17
2018-11-22T02:30:24.865Z,30.33
2018-11-22T02:32:54.810Z,30.73
2018-11-22T02:35:32.070Z,30.30
2018-11-22T02:38:03.764Z,31.00
2018-11-22T02:40:32.582Z,30.47
2018-11-22T02:43:01.098Z,31.50
2018-11-22T02:45:32.846Z,31.40
2018-11-22T02:48:01.252Z,31.17
2018-11-22T02:50:40.523Z,30.40
2018-11-22T02:53:39.633Z,31.80
2018-11-22T02:56:08.106Z,31.27
2018-11-22T02:58:48.402Z,31.83
2018-11-22T03:01:26.585Z,30.27
2018-11-22T03:03:53.775Z,30.07
2018-11-22T03:06:25.679Z,31.17
2018-11-22T03:08:53.911Z,30.67
2018-11-22T03:11:31.179Z,31.13
2018-11-22T03:14:03.982Z,31.17
2018-11-22T03:16:35.439Z,31.17
2018-11-22T03:19:03.881Z,29.73
2018-11-22T03:21:41.077Z,30.67
2018-11-22T03:24:12.566Z,30.67
2018-11-22T03:26:41.406Z,30.37
2018-11-22T03:29:12.239Z,32.10
2018-11-22T03:31:47.961Z,30.20
2018-11-22T03:34:29.308Z,31.33
2018-11-22T03:36:58.543Z,30.97
2018-11-22T03:39:34.355Z,30.03
2018-11-22T03:42:14.571Z,31.03
2018-11-22T03:44:54.416Z,31.37
2018-11-22T03:47:34.779Z,29.60
2018-11-22T03:50:13.920Z,30.43
2018-11-22T03:52:47.727Z,30.90
2018-11-22T03:55:17.407Z,29.50
2018-11-22T03:57:48.939Z,31.73
2018-11-22T04:00:26.615Z,29.93
2018-11-22T04:02:55.200Z,32.27
2018-11-22T04:05:25.120Z,30.73
2018-11-22T04:07:53.357Z,31.33
2018-11-22T04:10:32.084Z,31.77
2018-11-22T04:13:00.317Z,30.90
2018-11-22T04:15:28.588Z,30.60
2018-11-22T04:17:57.058Z,30.87
2018-11-22T04:20:27.535Z,31.30
2018-11-22T04:22:55.711Z,30.67
2018-11-22T04:25:31.299Z,29.80
2018-11-22T04:28:02.464Z,29.77
2018-11-22T04:30:32.244Z,31.40
2018-11-22T04:33:00.572Z,29.60
2018-11-22T04:35:29.649Z,30.33
2018-11-22T04:38:01.175Z,30.03
2018-11-22T04:40:31.848Z,29.80
2018-11-22T04:42:59.447Z,29.53
2018-11-22T04:45:32.071Z,29.73
2018-11-22T04:48:01.252Z,30.77
2018-11-22T04:50:34.029Z,28.47
2018-11-22T04:53:02.824Z,30.37
2018-11-22T04:55:31.424Z,29.77
2018-11-22T04:57:59.725Z,31.10
2018-11-22T05:00:31.221Z,30.50
2018-11-22T05:02:59.389Z,30.27
2018-11-22T05:05:31.109Z,31.33
2018-11-22T05:08:07.633Z,30.20
2018-11-22T05:10:36.054Z,29.87
2018-11-22T05:13:04.337Z,30.83
2018-11-22T05:15:35.399Z,30.07
2018-11-22T05:18:09.533Z,29.73
2018-11-22T05:20:37.749Z,30.27
2018-11-22T05:23:05.884Z,29.30
2018-11-22T05:25:34.603Z,30.13
2018-11-22T05:28:02.925Z,30.50
2018-11-22T05:30:37.161Z,30.87
2018-11-22T05:33:05.813Z,29.57
2018-11-22T05:35:34.521Z,30.63
2018-11-22T05:38:05.662Z,30.53
2018-11-22T05:40:41.898Z,30.40
2018-11-22T05:43:08.934Z,31.60
2018-11-22T05:45:37.337Z,30.33
2018-11-22T05:48:06.065Z,29.87
2018-11-22T05:50:34.638Z,31.30
2018-11-22T05:53:03.725Z,30.10
2018-11-22T05:55:32.686Z,31.10
2018-11-22T05:58:03.249Z,31.93
2018-11-22T06:00:41.961Z,31.13
2018-11-22T06:03:17.689Z,31.93
2018-11-22T06:05:55.696Z,30.93
2018-11-22T06:08:24.382Z,31.07
2018-11-22T06:10:55.309Z,30.30
2018-11-22T06:13:28.157Z,31.60
2018-11-22T06:15:56.218Z,29.80
2018-11-22T06:18:24.434Z,30.57
2018-11-22T06:20:52.793Z,30.97
2018-11-22T06:23:20.990Z,29.93
2018-11-22T06:25:58.993Z,31.43
2018-11-22T06:28:38.898Z,30.40
2018-11-22T06:31:22.686Z,30.73
2018-11-22T06:34:09.050Z,30.17
2018-11-22T06:36:38.662Z,30.23
2018-11-22T06:39:22.238Z,32.20
2018-11-22T06:42:08.772Z,31.43
2018-11-22T06:44:48.679Z,31.50
2018-11-22T06:47:21.646Z,29.73
2018-11-22T06:49:55.701Z,30.67
2018-11-22T06:52:27.318Z,31.03
2018-11-22T06:54:58.274Z,31.07
2018-11-22T06:57:29.686Z,30.93
2018-11-22T07:00:02.654Z,30.20
2018-11-22T07:02:29.490Z,31.70
2018-11-22T07:05:17.498Z,30.73
2018-11-22T07:07:49.418Z,31.70
2018-11-22T07:10:31.073Z,31.33
2018-11-22T07:13:01.638Z,30.43
2018-11-22T07:16:01.618Z,29.93
2018-11-22T07:18:38.725Z,30.47
2018-11-22T07:21:06.127Z,30.57
2018-11-22T07:26:28.322Z,30.53
2018-11-22T07:28:57.166Z,30.53
2018-11-22T07:31:25.548Z,31.37
2018-11-22T07:33:59.695Z,29.87
2018-11-22T12:15:56.387Z,23.17
2018-11-22T12:21:04.764Z,22.13
2018-11-22T12:23:33.396Z,22.63
2018-11-22T12:26:12.920Z,23.27
2018-11-22T12:28:46.480Z,21.13
2018-11-22T12:31:23.197Z,21.93
2018-11-22T12:33:58.013Z,20.13
2018-11-22T12:36:33.693Z,22.27
2018-11-22T12:39:12.085Z,22.77
2018-11-22T12:41:44.681Z,23.03
2018-11-22T12:44:13.253Z,20.33
2018-11-22T12:46:44.937Z,21.37
2018-11-22T12:49:13.248Z,20.10
2018-11-22T12:51:44.369Z,21.43
2018-11-22T12:54:13.325Z,21.83
2018-11-22T12:56:41.409Z,20.23
2018-11-22T12:59:09.561Z,20.67
2018-11-22T13:01:39.405Z,20.57
2018-11-22T13:04:08.089Z,20.53
2018-11-22T13:06:36.210Z,19.83
2018-11-22T13:09:06.385Z,19.87
2018-11-22T13:11:35.780Z,20.03
2018-11-22T13:14:03.865Z,21.17
2018-11-22T13:16:34.930Z,19.43
2018-11-22T13:19:03.114Z,21.50
2018-11-22T13:21:32.009Z,21.67
2018-11-22T13:24:00.121Z,20.03
2018-11-22T13:26:28.565Z,21.53
2018-11-22T13:28:56.689Z,21.43
2018-11-22T13:31:24.810Z,20.67
2018-11-22T13:33:53.406Z,20.80
2018-11-22T13:36:21.668Z,19.87
2018-11-22T13:38:49.950Z,19.57
2018-11-22T13:41:19.181Z,19.13
2018-11-22T13:43:47.350Z,18.83
2018-11-22T13:46:15.435Z,19.50
2018-11-22T13:48:43.478Z,18.73
2018-11-22T13:51:12.690Z,18.70
2018-11-22T13:53:43.002Z,19.70
2018-11-22T13:56:11.142Z,18.17
2018-11-22T13:58:45.158Z,17.60
2018-11-22T14:01:19.565Z,17.50
2018-11-22T14:03:47.617Z,18.73
2018-11-22T14:06:15.880Z,17.67
2018-11-22T14:08:44.071Z,18.20
2018-11-22T14:11:14.052Z,19.43
2018-11-22T14:13:40.313Z,17.87
2018-11-22T14:16:08.345Z,18.27
2018-11-22T14:18:36.439Z,16.23
2018-11-22T14:21:04.570Z,18.93
2018-11-22T14:23:32.803Z,18.20
2018-11-22T14:26:00.838Z,18.43
2018-11-22T14:28:28.958Z,18.90
2018-11-22T14:30:56.967Z,16.57
2018-11-22T14:33:25.178Z,16.10
2018-11-22T14:35:53.307Z,16.93
2018-11-22T14:38:21.506Z,16.93
2018-11-22T14:40:49.666Z,16.87
2018-11-22T14:43:17.860Z,17.00
2018-11-22T14:45:46.007Z,17.17
2018-11-22T14:48:14.236Z,17.50
2018-11-22T14:50:44.433Z,17.87
2018-11-22T14:53:16.579Z,16.70
2018-11-22T14:55:44.743Z,15.70
2018-11-22T14:58:15.564Z,17.17
2018-11-22T15:00:44.323Z,16.40
2018-11-22T15:03:12.446Z,16.17
2018-11-22T15:05:41.159Z,16.53
2018-11-22T15:08:10.151Z,16.80
2018-11-22T15:10:40.707Z,16.70
2018-11-22T15:13:15.144Z,17.37
2018-11-22T15:15:50.795Z,17.20
2018-11-22T15:40:40.768Z,15.83
2018-11-22T15:43:17.464Z,16.27
2018-11-22T15:52:36.564Z,17.07
2018-11-22T15:55:21.395Z,16.37
2018-11-22T16:00:42.704Z,16.80
2018-11-22T16:07:14.688Z,17.50
2018-11-22T16:51:26.295Z,16.57
2018-11-22T16:53:54.332Z,16.47
2018-11-22T17:30:44.184Z,17.00
2018-11-22T17:33:31.290Z,18.53
2018-11-22T17:36:03.492Z,18.03
2018-11-22T17:38:37.570Z,21.20
2018-11-22T17:47:38.476Z,18.17
2018-11-22T17:50:09.328Z,17.43
2018-11-22T17:59:07.132Z,21.83
2018-11-22T18:01:36.944Z,20.57
2018-11-22T18:04:13.648Z,20.47
2018-11-22T18:09:23.676Z,19.40
2018-11-22T18:14:46.287Z,20.53
2018-11-22T18:17:20.788Z,20.33
2018-11-22T18:22:39.516Z,19.23
2018-11-22T18:28:08.752Z,18.47
2018-11-22T18:30:43.485Z,20.47
2018-11-22T18:33:12.900Z,20.53
2018-11-22T18:35:49.489Z,21.40
2018-11-22T18:38:29.603Z,21.30
2018-11-22T18:40:58.393Z,20.67
2018-11-22T18:43:45.385Z,21.33
2018-11-22T18:46:36.117Z,21.47
2018-11-22T19:01:33.357Z,20.27
2018-11-22T19:06:18.657Z,20.50
2018-11-22T19:09:03.157Z,19.77
2018-11-22T19:14:57.670Z,19.57
2018-11-22T19:17:29.529Z,19.17
2018-11-22T19:20:08.947Z,19.63
2018-11-22T19:22:39.709Z,18.10
2018-11-22T19:25:11.041Z,21.80
2018-11-22T19:27:42.617Z,21.10
2018-11-22T19:30:22.972Z,20.40
2018-11-22T19:33:07.435Z,19.87
2018-11-22T19:35:43.645Z,20.20
2018-11-22T19:38:17.077Z,19.27
2018-11-22T19:40:54.653Z,20.47
2018-11-22T19:43:51.229Z,18.87
2018-11-22T19:46:24.217Z,18.47
2018-11-22T19:48:52.786Z,18.83
2018-11-22T19:51:21.798Z,19.57
2018-11-22T19:53:50.801Z,18.97
2018-11-22T19:56:24.550Z,19.17
2018-11-22T19:58:53.019Z,20.27
2018-11-22T20:01:21.302Z,20.03
2018-11-22T20:03:49.527Z,20.83
2018-11-22T20:06:17.770Z,22.03
2018-11-22T20:08:45.994Z,20.17
2018-11-22T20:11:15.632Z,19.20
2018-11-22T20:13:44.230Z,19.23
2018-11-22T20:16:12.654Z,18.57
2018-11-22T20:18:41.839Z,19.27
2018-11-22T20:21:16.518Z,18.37
2018-11-22T20:23:45.395Z,18.67
2018-11-22T20:26:13.922Z,20.53
2018-11-22T20:28:42.279Z,19.37
2018-11-22T20:31:10.419Z,19.67
2018-11-22T20:33:38.838Z,18.93
2018-11-22T20:36:07.338Z,19.80
2018-11-22T20:38:35.679Z,20.77
2018-11-22T20:41:04.463Z,19.10
2018-11-22T20:43:32.819Z,19.20
2018-11-22T20:46:01.267Z,20.30
2018-11-22T20:48:29.607Z,20.50
2018-11-22T20:50:57.924Z,20.63
2018-11-22T20:53:26.175Z,20.20
2018-11-22T20:55:54.719Z,20.90
2018-11-22T20:58:23.178Z,19.13
2018-11-22T21:00:51.384Z,19.47
2018-11-22T21:03:19.799Z,19.40
2018-11-22T21:05:48.001Z,20.13
2018-11-22T21:08:16.383Z,19.93
2018-11-22T21:10:44.603Z,21.20
2018-11-22T21:13:12.923Z,19.90
2018-11-22T21:15:40.997Z,21.20
2018-11-22T21:18:09.164Z,18.10
2018-11-22T21:20:38.807Z,17.20
2018-11-22T21:23:06.891Z,17.30
2018-11-22T21:25:34.935Z,16.87
2018-11-22T21:28:02.995Z,16.47
2018-11-22T21:30:32.519Z,17.57
2018-11-22T21:33:01.176Z,19.03
2018-11-22T21:35:29.335Z,19.60
2018-11-22T21:37:58.307Z,17.00
2018-11-22T21:40:27.123Z,16.90
2018-11-22T21:42:55.198Z,17.03
2018-11-22T21:45:24.287Z,17.67
2018-11-22T21:47:52.348Z,17.70
2018-11-22T21:50:21.778Z,17.10
2018-11-22T21:52:49.848Z,17.70
2018-11-22T21:55:20.911Z,18.67
2018-11-22T21:57:49.676Z,19.27
2018-11-22T22:00:20.609Z,19.57
2018-11-22T22:02:52.617Z,19.53
2018-11-22T22:05:18.091Z,18.63
2018-11-22T22:07:46.139Z,18.20
2018-11-22T22:10:14.201Z,17.77
2018-11-22T22:12:42.512Z,18.33
2018-11-22T22:15:12.224Z,17.00
2018-11-22T22:17:40.996Z,18.07
2018-11-22T22:20:09.972Z,18.07
2018-11-22T22:22:38.209Z,17.03
2018-11-22T22:25:07.269Z,18.03
2018-11-22T22:27:35.316Z,19.33
2018-11-22T22:30:03.368Z,20.00
2018-11-22T22:32:31.432Z,18.87
2018-11-22T22:34:59.481Z,17.63
2018-11-22T22:37:27.544Z,17.90
2018-11-22T22:39:55.586Z,16.97
2018-11-22T22:42:23.628Z,17.80
2018-11-22T22:44:51.701Z,17.87
2018-11-22T22:47:19.820Z,18.33
2018-11-22T22:49:47.848Z,18.03
2018-11-22T22:52:15.910Z,18.43
2018-11-22T22:54:43.963Z,18.10
2018-11-22T22:57:12.001Z,17.50
2018-11-22T22:59:40.021Z,18.40
2018-11-22T23:02:08.053Z,19.03
2018-11-22T23:04:36.089Z,17.73
2018-11-22T23:07:04.121Z,18.97
2018-11-22T23:09:32.152Z,16.83
2018-11-22T23:12:00.213Z,17.73
2018-11-22T23:14:28.213Z,18.90
2018-11-22T23:16:56.227Z,19.37
2018-11-22T23:19:24.489Z,19.77
2018-11-22T23:21:52.669Z,19.70
2018-11-22T23:24:20.725Z,20.27
2018-11-22T23:26:48.769Z,19.47
2018-11-22T23:29:16.817Z,18.93
2018-11-22T23:31:44.934Z,18.60
2018-11-22T23:34:12.956Z,19.17
2018-11-22T23:36:41.021Z,19.60
2018-11-22T23:39:09.549Z,17.67
2018-11-22T23:41:37.625Z,18.03
2018-11-22T23:44:05.822Z,17.33
2018-11-22T23:46:33.842Z,18.87
2018-11-22T23:49:01.894Z,18.27
2018-11-22T23:51:29.917Z,16.80
2018-11-22T23:53:57.966Z,16.03
2018-11-22T23:56:25.993Z,16.80
2018-11-22T23:58:54.057Z,16.70
